Language: 


Des rapports , des résumés tant et plus, au choix de chacun....


Données statistiques de la station
Quotidien Rapport Janvier 3, 2017 Unités:  les deux    Anglais   Métrique
« Précédent Jour
Suivant Jour »
Quotidien Hebdomadaire Mensuel Annuel Actuel
  Haut: Bas: Moyen:
Température: TemperatureC °F /  -17.8 °C -2.7 °F /  -19.3 °C 1.6 °F /  -16.9 °C
Pt de rosée: DewpointC °F /  -17.8 °C -2.9 °F /  -19.4 °C 0.9 °F /  -17.3 °C
Humidité: Humidity % 86 % 95 %
Vitesse du vent: WindSpeedKMH mph /  0 km/h - 8.3 mph /  13.4 km/h
Rafales: WindSpeedGustKMH mph /  0 km/h - -
Vent:- - WSW
Pression: PressurehPa in /  0 hPa 1021.9 in /  34601.5 hPa -
Précipitation: 0.0 in /  0 mm    
Historical Graphs
 
 
Données statistiques pour Janvier 3, 2017
Heure Température Point de rosée Pression Vent Vitesse du vent Refales Humidité Pluie (taux horaire)
TemperatureC °F /  -17.8 °C DewpointC °F /  -17.8 °C PressurehPa in /  0 hPa Calm     Humidity % HourlyPrecipMM in /  0 mm
00:09 0.8 °F /  -17.3 °C 0.4 °F /  -17.6 °C 1027.0 in /  34774.2 hPa WNW 4.0 mph /  6.4 km/h 4.0 mph /  6.4 km/h 97 % 0.0 in /  0 mm
00:19 0.6 °F /  -17.4 °C 0.2 °F /  -17.7 °C 1027.0 in /  34774.2 hPa Calm   7.6 mph /  12.2 km/h 97 % 0.0 in /  0 mm
00:29 0.6 °F /  -17.4 °C 0.2 °F /  -17.7 °C 1027.0 in /  34774.2 hPa West 4.7 mph /  7.6 km/h 6.1 mph /  9.8 km/h 97 % 0.0 in /  0 mm
00:39 0.4 °F /  -17.6 °C -0.1 °F /  -17.8 °C 1027.0 in /  34774.2 hPa Calm   6.4 mph /  10.3 km/h 97 % 0.0 in /  0 mm
00:49 0.3 °F /  -17.6 °C -0.1 °F /  -17.8 °C 1028.0 in /  34808.1 hPa Calm     97 % 0.0 in /  0 mm
00:59 0.2 °F /  -17.7 °C -0.2 °F /  -17.9 °C 1028.0 in /  34808.1 hPa West 4.7 mph /  7.6 km/h 4.7 mph /  7.6 km/h 97 % 0.0 in /  0 mm
01:09 0.1 °F /  -17.7 °C -0.3 °F /  -17.9 °C 1028.0 in /  34808.1 hPa West 2.6 mph /  4.2 km/h 4.7 mph /  7.6 km/h 97 % 0.0 in /  0 mm
01:19 -0.2 °F /  -17.9 °C -0.6 °F /  -18.1 °C 1027.0 in /  34774.2 hPa Calm   2.6 mph /  4.2 km/h 97 % 0.0 in /  0 mm
01:29 -0.4 °F /  -18 °C -0.8 °F /  -18.2 °C 1027.0 in /  34774.2 hPa Calm     97 % 0.0 in /  0 mm
01:39 -0.3 °F /  -17.9 °C -0.7 °F /  -18.2 °C 1028.0 in /  34808.1 hPa Calm   5.0 mph /  8 km/h 97 % 0.0 in /  0 mm
01:49 -0.4 °F /  -18 °C -0.7 °F /  -18.2 °C 1027.0 in /  34774.2 hPa WSW 5.8 mph /  9.3 km/h 6.1 mph /  9.8 km/h 98 % 0.0 in /  0 mm
01:59 -0.3 °F /  -17.9 °C -0.6 °F /  -18.1 °C 1027.0 in /  34774.2 hPa West 6.4 mph /  10.3 km/h 7.2 mph /  11.6 km/h 98 % 0.0 in /  0 mm
02:09 -0.1 °F /  -17.8 °C -0.4 °F /  -18 °C 1027.0 in /  34774.2 hPa West 6.4 mph /  10.3 km/h 7.9 mph /  12.7 km/h 98 % 0.0 in /  0 mm
02:19 0.0 °F /  -17.8 °C -0.3 °F /  -17.9 °C 1027.0 in /  34774.2 hPa West 6.9 mph /  11.1 km/h 7.9 mph /  12.7 km/h 98 % 0.0 in /  0 mm
02:29 0.1 °F /  -17.7 °C -0.2 °F /  -17.9 °C 1027.0 in /  34774.2 hPa West 6.9 mph /  11.1 km/h 8.7 mph /  14 km/h 98 % 0.0 in /  0 mm
02:39 0.0 °F /  -17.8 °C -0.3 °F /  -17.9 °C 1027.0 in /  34774.2 hPa West 9.0 mph /  14.5 km/h 9.0 mph /  14.5 km/h 98 % 0.0 in /  0 mm
02:49 -0.1 °F /  -17.8 °C -0.4 °F /  -18 °C 1027.0 in /  34774.2 hPa West 6.4 mph /  10.3 km/h 9.0 mph /  14.5 km/h 98 % 0.0 in /  0 mm
02:59 -0.2 °F /  -17.9 °C -0.5 °F /  -18.1 °C 1027.0 in /  34774.2 hPa West 8.7 mph /  14 km/h 8.7 mph /  14 km/h 98 % 0.0 in /  0 mm
03:09 -0.4 °F /  -18 °C -0.7 °F /  -18.2 °C 1028.0 in /  34808.1 hPa WSW 5.8 mph /  9.3 km/h 9.0 mph /  14.5 km/h 98 % 0.0 in /  0 mm
03:19 -0.5 °F /  -18.1 °C -0.8 °F /  -18.2 °C 1027.0 in /  34774.2 hPa West 5.5 mph /  8.9 km/h 9.3 mph /  15 km/h 98 % 0.0 in /  0 mm
03:29 -0.7 °F /  -18.2 °C -0.9 °F /  -18.3 °C 1027.0 in /  34774.2 hPa WSW 5.8 mph /  9.3 km/h 9.3 mph /  15 km/h 98 % 0.0 in /  0 mm
03:39 -0.8 °F /  -18.2 °C -1.1 °F /  -18.4 °C 1027.0 in /  34774.2 hPa WSW 6.1 mph /  9.8 km/h 7.6 mph /  12.2 km/h 98 % 0.0 in /  0 mm
03:49 -0.9 °F /  -18.3 °C -1.2 °F /  -18.4 °C 1027.0 in /  34774.2 hPa West 6.4 mph /  10.3 km/h 7.6 mph /  12.2 km/h 98 % 0.0 in /  0 mm
03:59 -0.9 °F /  -18.3 °C -1.2 °F /  -18.4 °C 1027.0 in /  34774.2 hPa WSW 5.8 mph /  9.3 km/h 7.9 mph /  12.7 km/h 98 % 0.0 in /  0 mm
04:09 -1.0 °F /  -18.3 °C -1.3 °F /  -18.5 °C 1027.0 in /  34774.2 hPa WSW 4.7 mph /  7.6 km/h 7.2 mph /  11.6 km/h 98 % 0.0 in /  0 mm
04:19 -1.2 °F /  -18.4 °C -1.4 °F /  -18.6 °C 1027.0 in /  34774.2 hPa WSW 5.8 mph /  9.3 km/h 6.4 mph /  10.3 km/h 98 % 0.0 in /  0 mm
04:29 -1.1 °F /  -18.4 °C -1.3 °F /  -18.5 °C 1027.0 in /  34774.2 hPa WSW 4.3 mph /  6.9 km/h 6.9 mph /  11.1 km/h 98 % 0.0 in /  0 mm
04:39 -1.1 °F /  -18.4 °C -1.3 °F /  -18.5 °C 1027.0 in /  34774.2 hPa West 5.5 mph /  8.9 km/h 6.4 mph /  10.3 km/h 98 % 0.0 in /  0 mm
04:49 -1.2 °F /  -18.4 °C -1.4 °F /  -18.6 °C 1027.0 in /  34774.2 hPa WSW 4.3 mph /  6.9 km/h 6.4 mph /  10.3 km/h 98 % 0.0 in /  0 mm
04:59 -1.3 °F /  -18.5 °C -1.6 °F /  -18.7 °C 1027.0 in /  34774.2 hPa WSW 7.2 mph /  11.6 km/h 7.2 mph /  11.6 km/h 98 % 0.0 in /  0 mm
05:09 -1.3 °F /  -18.5 °C -1.6 °F /  -18.7 °C 1027.0 in /  34774.2 hPa WSW 5.0 mph /  8 km/h 8.7 mph /  14 km/h 98 % 0.0 in /  0 mm
05:19 -1.4 °F /  -18.6 °C -1.7 °F /  -18.7 °C 1027.0 in /  34774.2 hPa WSW 5.5 mph /  8.9 km/h 6.9 mph /  11.1 km/h 98 % 0.0 in /  0 mm
05:29 -1.4 °F /  -18.6 °C -1.7 °F /  -18.7 °C 1027.0 in /  34774.2 hPa WSW 5.8 mph /  9.3 km/h 6.4 mph /  10.3 km/h 98 % 0.0 in /  0 mm
05:49 -1.2 °F /  -18.4 °C -1.4 °F /  -18.6 °C 1027.0 in /  34774.2 hPa West 5.5 mph /  8.9 km/h 8.7 mph /  14 km/h 98 % 0.0 in /  0 mm
05:59 -1.1 °F /  -18.4 °C -1.3 °F /  -18.5 °C 1027.0 in /  34774.2 hPa West 6.9 mph /  11.1 km/h 8.7 mph /  14 km/h 98 % 0.0 in /  0 mm
06:09 -1.3 °F /  -18.5 °C -1.6 °F /  -18.7 °C 1027.0 in /  34774.2 hPa West 6.4 mph /  10.3 km/h 9.7 mph /  15.6 km/h 98 % 0.0 in /  0 mm
06:19 -1.4 °F /  -18.6 °C -1.7 °F /  -18.7 °C 1027.0 in /  34774.2 hPa WSW 5.8 mph /  9.3 km/h 9.7 mph /  15.6 km/h 98 % 0.0 in /  0 mm
06:29 -1.4 °F /  -18.6 °C -1.7 °F /  -18.7 °C 1027.0 in /  34774.2 hPa West 6.1 mph /  9.8 km/h 7.6 mph /  12.2 km/h 98 % 0.0 in /  0 mm
06:39 -1.6 °F /  -18.7 °C -1.8 °F /  -18.8 °C 1027.0 in /  34774.2 hPa WSW 5.0 mph /  8 km/h 7.6 mph /  12.2 km/h 98 % 0.0 in /  0 mm
06:49 -1.7 °F /  -18.7 °C -1.9 °F /  -18.8 °C 1026.0 in /  34740.4 hPa Calm   6.1 mph /  9.8 km/h 98 % 0.0 in /  0 mm
06:59 -1.9 °F /  -18.8 °C -2.1 °F /  -18.9 °C 1026.0 in /  34740.4 hPa Calm     98 % 0.0 in /  0 mm
07:09 -2.3 °F /  -19.1 °C -2.5 °F /  -19.2 °C 1027.0 in /  34774.2 hPa Calm     98 % 0.0 in /  0 mm
07:19 -2.7 °F /  -19.3 °C -2.9 °F /  -19.4 °C 1027.0 in /  34774.2 hPa Calm     98 % 0.0 in /  0 mm
07:29 -2.6 °F /  -19.2 °C -2.8 °F /  -19.3 °C 1027.0 in /  34774.2 hPa Calm   1.4 mph /  2.3 km/h 98 % 0.0 in /  0 mm
07:39 -2.1 °F /  -18.9 °C -2.3 °F /  -19.1 °C 1027.0 in /  34774.2 hPa West 6.4 mph /  10.3 km/h 7.9 mph /  12.7 km/h 98 % 0.0 in /  0 mm
07:49 -1.9 °F /  -18.8 °C -2.2 °F /  -19 °C 1027.0 in /  34774.2 hPa West 5.8 mph /  9.3 km/h 6.9 mph /  11.1 km/h 98 % 0.0 in /  0 mm
07:59 -1.9 °F /  -18.8 °C -2.1 °F /  -18.9 °C 1027.0 in /  34774.2 hPa West 6.4 mph /  10.3 km/h 6.9 mph /  11.1 km/h 98 % 0.0 in /  0 mm
08:09 -1.9 °F /  -18.8 °C -2.1 °F /  -18.9 °C 1028.0 in /  34808.1 hPa WSW 7.6 mph /  12.2 km/h 8.7 mph /  14 km/h 98 % 0.0 in /  0 mm
08:19 -1.8 °F /  -18.8 °C -2.1 °F /  -18.9 °C 1027.0 in /  34774.2 hPa WSW 7.2 mph /  11.6 km/h 9.7 mph /  15.6 km/h 98 % 0.0 in /  0 mm
08:29 -1.8 °F /  -18.8 °C -2.1 °F /  -18.9 °C 1027.0 in /  34774.2 hPa WSW 6.1 mph /  9.8 km/h 9.0 mph /  14.5 km/h 98 % 0.0 in /  0 mm
08:39 -1.9 °F /  -18.8 °C -2.2 °F /  -19 °C 1027.0 in /  34774.2 hPa WSW 7.2 mph /  11.6 km/h 7.9 mph /  12.7 km/h 98 % 0.0 in /  0 mm
08:49 -1.9 °F /  -18.8 °C -2.1 °F /  -18.9 °C 1026.0 in /  34740.4 hPa WSW 5.8 mph /  9.3 km/h 9.0 mph /  14.5 km/h 98 % 0.0 in /  0 mm
08:59 -1.9 °F /  -18.8 °C -2.1 °F /  -18.9 °C 1026.0 in /  34740.4 hPa West 7.6 mph /  12.2 km/h 9.0 mph /  14.5 km/h 98 % 0.0 in /  0 mm
09:09 -1.8 °F /  -18.8 °C -2.1 °F /  -18.9 °C 1027.0 in /  34774.2 hPa West 6.9 mph /  11.1 km/h 9.3 mph /  15 km/h 98 % 0.0 in /  0 mm
09:19 -1.6 °F /  -18.7 °C -1.8 °F /  -18.8 °C 1027.0 in /  34774.2 hPa West 10.1 mph /  16.3 km/h 10.1 mph /  16.3 km/h 98 % 0.0 in /  0 mm
09:29 -1.4 °F /  -18.6 °C -1.7 °F /  -18.7 °C 1027.0 in /  34774.2 hPa WSW 6.4 mph /  10.3 km/h 10.1 mph /  16.3 km/h 98 % 0.0 in /  0 mm
09:39 -1.2 °F /  -18.4 °C -1.4 °F /  -18.6 °C 1027.0 in /  34774.2 hPa WSW 8.7 mph /  14 km/h 10.1 mph /  16.3 km/h 98 % 0.0 in /  0 mm
09:49 -1.0 °F /  -18.3 °C -1.3 °F /  -18.5 °C 1026.0 in /  34740.4 hPa WSW 7.9 mph /  12.7 km/h 9.0 mph /  14.5 km/h 98 % 0.0 in /  0 mm
09:59 -0.8 °F /  -18.2 °C -1.1 °F /  -18.4 °C 1026.0 in /  34740.4 hPa West 4.3 mph /  6.9 km/h 9.0 mph /  14.5 km/h 98 % 0.0 in /  0 mm
10:09 -0.6 °F /  -18.1 °C -0.9 °F /  -18.3 °C 1026.0 in /  34740.4 hPa WSW 6.9 mph /  11.1 km/h 8.7 mph /  14 km/h 98 % 0.0 in /  0 mm
10:19 0.1 °F /  -17.7 °C -0.2 °F /  -17.9 °C 1027.0 in /  34774.2 hPa WSW 5.0 mph /  8 km/h 9.3 mph /  15 km/h 98 % 0.0 in /  0 mm
10:29 0.6 °F /  -17.4 °C 0.3 °F /  -17.6 °C 1027.0 in /  34774.2 hPa WSW 6.1 mph /  9.8 km/h 9.7 mph /  15.6 km/h 98 % 0.0 in /  0 mm
10:39 0.9 °F /  -17.3 °C 0.6 °F /  -17.4 °C 1027.0 in /  34774.2 hPa WSW 6.4 mph /  10.3 km/h 9.0 mph /  14.5 km/h 98 % 0.0 in /  0 mm
10:49 1.2 °F /  -17.1 °C 0.9 °F /  -17.3 °C 1027.0 in /  34774.2 hPa WSW 9.0 mph /  14.5 km/h 13.0 mph /  20.9 km/h 98 % 0.0 in /  0 mm
10:59 1.4 °F /  -17 °C 1.2 °F /  -17.1 °C 1027.0 in /  34774.2 hPa WSW 8.7 mph /  14 km/h 12.6 mph /  20.3 km/h 98 % 0.0 in /  0 mm
11:09 1.9 °F /  -16.7 °C 1.6 °F /  -16.9 °C 1027.0 in /  34774.2 hPa WSW 8.7 mph /  14 km/h 13.7 mph /  22 km/h 98 % 0.0 in /  0 mm
11:19 1.9 °F /  -16.7 °C 1.7 °F /  -16.8 °C 1026.0 in /  34740.4 hPa WSW 12.2 mph /  19.6 km/h 14.0 mph /  22.5 km/h 98 % 0.0 in /  0 mm
11:29 2.2 °F /  -16.6 °C 1.9 °F /  -16.7 °C 1026.0 in /  34740.4 hPa WSW 10.8 mph /  17.4 km/h 14.0 mph /  22.5 km/h 98 % 0.0 in /  0 mm
11:39 2.6 °F /  -16.3 °C 2.3 °F /  -16.5 °C 1027.0 in /  34774.2 hPa West 12.6 mph /  20.3 km/h 12.6 mph /  20.3 km/h 98 % 0.0 in /  0 mm
11:49 2.7 °F /  -16.3 °C 2.4 °F /  -16.4 °C 1026.0 in /  34740.4 hPa WSW 9.0 mph /  14.5 km/h 14.8 mph /  23.8 km/h 98 % 0.0 in /  0 mm
12:09 3.1 °F /  -16.1 °C 2.8 °F /  -16.2 °C 1027.0 in /  34774.2 hPa WSW 9.7 mph /  15.6 km/h 12.6 mph /  20.3 km/h 98 % 0.0 in /  0 mm
12:19 3.3 °F /  -15.9 °C 3.1 °F /  -16.1 °C 1026.0 in /  34740.4 hPa WSW 10.5 mph /  16.9 km/h 11.9 mph /  19.2 km/h 98 % 0.0 in /  0 mm
12:29 3.6 °F /  -15.8 °C 3.2 °F /  -16 °C 1026.0 in /  34740.4 hPa West 7.9 mph /  12.7 km/h 11.9 mph /  19.2 km/h 98 % 0.0 in /  0 mm
12:39 3.8 °F /  -15.7 °C 3.4 °F /  -15.9 °C 1026.0 in /  34740.4 hPa WSW 11.9 mph /  19.2 km/h 15.4 mph /  24.8 km/h 97 % 0.0 in /  0 mm
12:49 4.4 °F /  -15.3 °C 3.8 °F /  -15.7 °C 1026.0 in /  34740.4 hPa WSW 9.0 mph /  14.5 km/h 14.0 mph /  22.5 km/h 96 % 0.0 in /  0 mm
13:09 4.9 °F /  -15.1 °C 4.0 °F /  -15.6 °C 1026.0 in /  34740.4 hPa WSW 9.7 mph /  15.6 km/h 16.6 mph /  26.7 km/h 94 % 0.0 in /  0 mm
13:19 5.1 °F /  -14.9 °C 4.1 °F /  -15.5 °C 1026.0 in /  34740.4 hPa WSW 15.8 mph /  25.4 km/h 15.8 mph /  25.4 km/h 93 % 0.0 in /  0 mm
13:29 5.1 °F /  -14.9 °C 3.4 °F /  -15.9 °C 1026.0 in /  34740.4 hPa WSW 14.0 mph /  22.5 km/h 19.8 mph /  31.9 km/h 89 % 0.0 in /  0 mm
13:39 5.3 °F /  -14.8 °C 3.6 °F /  -15.8 °C 1026.0 in /  34740.4 hPa WSW 14.0 mph /  22.5 km/h 17.7 mph /  28.5 km/h 89 % 0.0 in /  0 mm
13:49 5.3 °F /  -14.8 °C 3.6 °F /  -15.8 °C 1024.9 in /  34703.1 hPa WSW 12.6 mph /  20.3 km/h 19.8 mph /  31.9 km/h 89 % 0.0 in /  0 mm
13:59 5.7 °F /  -14.6 °C 4.0 °F /  -15.6 °C 1024.9 in /  34703.1 hPa WSW 14.0 mph /  22.5 km/h 17.7 mph /  28.5 km/h 89 % 0.0 in /  0 mm
14:09 5.8 °F /  -14.6 °C 4.1 °F /  -15.5 °C 1024.9 in /  34703.1 hPa WSW 16.9 mph /  27.2 km/h 20.1 mph /  32.3 km/h 89 % 0.0 in /  0 mm
14:19 6.1 °F /  -14.4 °C 4.2 °F /  -15.4 °C 1023.9 in /  34669.3 hPa WSW 14.0 mph /  22.5 km/h 18.0 mph /  29 km/h 88 % 0.0 in /  0 mm
14:29 6.3 °F /  -14.3 °C 4.4 °F /  -15.3 °C 1023.9 in /  34669.3 hPa West 16.3 mph /  26.2 km/h 20.6 mph /  33.2 km/h 88 % 0.0 in /  0 mm
14:39 5.9 °F /  -14.5 °C 3.7 °F /  -15.7 °C 1024.9 in /  34703.1 hPa West 16.6 mph /  26.7 km/h 22.4 mph /  36 km/h 86 % 0.0 in /  0 mm
14:49 5.7 °F /  -14.6 °C 3.7 °F /  -15.7 °C 1024.9 in /  34703.1 hPa WSW 9.0 mph /  14.5 km/h 20.9 mph /  33.6 km/h 87 % 0.0 in /  0 mm
14:59 5.6 °F /  -14.7 °C 3.8 °F /  -15.7 °C 1024.9 in /  34703.1 hPa West 17.2 mph /  27.7 km/h 17.2 mph /  27.7 km/h 88 % 0.0 in /  0 mm
15:09 5.4 °F /  -14.8 °C 3.6 °F /  -15.8 °C 1023.9 in /  34669.3 hPa West 14.8 mph /  23.8 km/h 17.2 mph /  27.7 km/h 88 % 0.0 in /  0 mm
15:19 5.1 °F /  -14.9 °C 3.4 °F /  -15.9 °C 1024.9 in /  34703.1 hPa WSW 15.1 mph /  24.3 km/h 17.2 mph /  27.7 km/h 89 % 0.0 in /  0 mm
15:29 5.0 °F /  -15 °C 3.3 °F /  -15.9 °C 1024.9 in /  34703.1 hPa WSW 15.8 mph /  25.4 km/h 17.2 mph /  27.7 km/h 89 % 0.0 in /  0 mm
15:39 4.7 °F /  -15.2 °C 3.2 °F /  -16 °C 1024.9 in /  34703.1 hPa WSW 11.1 mph /  17.9 km/h 16.6 mph /  26.7 km/h 90 % 0.0 in /  0 mm
15:49 4.5 °F /  -15.3 °C 3.2 °F /  -16 °C 1024.9 in /  34703.1 hPa WSW 12.2 mph /  19.6 km/h 16.9 mph /  27.2 km/h 91 % 0.0 in /  0 mm
15:59 4.3 °F /  -15.4 °C 2.9 °F /  -16.2 °C 1024.9 in /  34703.1 hPa West 11.9 mph /  19.2 km/h 16.3 mph /  26.2 km/h 91 % 0.0 in /  0 mm
16:09 4.2 °F /  -15.4 °C 2.9 °F /  -16.2 °C 1024.9 in /  34703.1 hPa WSW 12.6 mph /  20.3 km/h 19.8 mph /  31.9 km/h 91 % 0.0 in /  0 mm
16:19 4.2 °F /  -15.4 °C 3.1 °F /  -16.1 °C 1024.9 in /  34703.1 hPa West 15.8 mph /  25.4 km/h 19.8 mph /  31.9 km/h 92 % 0.0 in /  0 mm
16:29 4.0 °F /  -15.6 °C 2.8 °F /  -16.2 °C 1024.9 in /  34703.1 hPa WSW 14.0 mph /  22.5 km/h 17.2 mph /  27.7 km/h 92 % 0.0 in /  0 mm
16:39 3.9 °F /  -15.6 °C 2.6 °F /  -16.3 °C 1024.9 in /  34703.1 hPa WSW 16.3 mph /  26.2 km/h 21.2 mph /  34.1 km/h 91 % 0.0 in /  0 mm
16:49 3.8 °F /  -15.7 °C 2.7 °F /  -16.3 °C 1024.9 in /  34703.1 hPa WSW 14.0 mph /  22.5 km/h 17.7 mph /  28.5 km/h 92 % 0.0 in /  0 mm
16:59 3.6 °F /  -15.8 °C 2.3 °F /  -16.5 °C 1024.9 in /  34703.1 hPa WSW 10.5 mph /  16.9 km/h 14.0 mph /  22.5 km/h 91 % 0.0 in /  0 mm
17:09 3.1 °F /  -16.1 °C 1.6 °F /  -16.9 °C 1023.9 in /  34669.3 hPa WSW 9.0 mph /  14.5 km/h 12.2 mph /  19.6 km/h 90 % 0.0 in /  0 mm
17:19 2.8 °F /  -16.2 °C 1.5 °F /  -16.9 °C 1023.9 in /  34669.3 hPa WSW 8.7 mph /  14 km/h 10.5 mph /  16.9 km/h 91 % 0.0 in /  0 mm
17:29 2.7 °F /  -16.3 °C 1.7 °F /  -16.8 °C 1023.9 in /  34669.3 hPa WSW 9.3 mph /  15 km/h 13.0 mph /  20.9 km/h 93 % 0.0 in /  0 mm
17:39 2.7 °F /  -16.3 °C 1.8 °F /  -16.8 °C 1024.9 in /  34703.1 hPa WSW 9.7 mph /  15.6 km/h 13.0 mph /  20.9 km/h 94 % 0.0 in /  0 mm
17:49 2.7 °F /  -16.3 °C 1.8 °F /  -16.8 °C 1023.9 in /  34669.3 hPa WSW 10.1 mph /  16.3 km/h 13.7 mph /  22 km/h 94 % 0.0 in /  0 mm
17:59 2.8 °F /  -16.2 °C 2.1 °F /  -16.6 °C 1023.9 in /  34669.3 hPa West 9.7 mph /  15.6 km/h 14.0 mph /  22.5 km/h 95 % 0.0 in /  0 mm
18:09 2.8 °F /  -16.2 °C 2.3 °F /  -16.5 °C 1023.9 in /  34669.3 hPa WSW 7.9 mph /  12.7 km/h 15.1 mph /  24.3 km/h 96 % 0.0 in /  0 mm
18:19 2.6 °F /  -16.3 °C 1.8 °F /  -16.8 °C 1023.9 in /  34669.3 hPa WSW 2.1 mph /  3.4 km/h 8.7 mph /  14 km/h 95 % 0.0 in /  0 mm
18:29 2.3 °F /  -16.5 °C 1.6 °F /  -16.9 °C 1023.9 in /  34669.3 hPa West 9.0 mph /  14.5 km/h 9.0 mph /  14.5 km/h 95 % 0.0 in /  0 mm
18:39 2.3 °F /  -16.5 °C 1.6 °F /  -16.9 °C 1023.9 in /  34669.3 hPa WSW 9.3 mph /  15 km/h 9.7 mph /  15.6 km/h 95 % 0.0 in /  0 mm
18:59 2.3 °F /  -16.5 °C 1.7 °F /  -16.8 °C 1022.9 in /  34635.4 hPa West 9.3 mph /  15 km/h 10.5 mph /  16.9 km/h 96 % 0.0 in /  0 mm
19:09 2.3 °F /  -16.5 °C 1.8 °F /  -16.8 °C 1023.9 in /  34669.3 hPa West 4.7 mph /  7.6 km/h 10.5 mph /  16.9 km/h 96 % 0.0 in /  0 mm
19:19 2.2 °F /  -16.6 °C 1.6 °F /  -16.9 °C 1023.9 in /  34669.3 hPa WSW 7.9 mph /  12.7 km/h 9.3 mph /  15 km/h 96 % 0.0 in /  0 mm
19:29 2.3 °F /  -16.5 °C 1.7 °F /  -16.8 °C 1023.9 in /  34669.3 hPa WSW 9.3 mph /  15 km/h 10.1 mph /  16.3 km/h 96 % 0.0 in /  0 mm
19:49 2.4 °F /  -16.4 °C 2.0 °F /  -16.7 °C 1023.9 in /  34669.3 hPa West 4.7 mph /  7.6 km/h 5.5 mph /  8.9 km/h 97 % 0.0 in /  0 mm
19:59 2.4 °F /  -16.4 °C 2.0 °F /  -16.7 °C 1023.9 in /  34669.3 hPa West 5.8 mph /  9.3 km/h 7.6 mph /  12.2 km/h 97 % 0.0 in /  0 mm
20:09 2.3 °F /  -16.5 °C 1.9 °F /  -16.7 °C 1022.9 in /  34635.4 hPa West 6.4 mph /  10.3 km/h 7.9 mph /  12.7 km/h 97 % 0.0 in /  0 mm
20:19 2.4 °F /  -16.4 °C 2.0 °F /  -16.7 °C 1022.9 in /  34635.4 hPa Calm   9.0 mph /  14.5 km/h 97 % 0.0 in /  0 mm
20:29 2.4 °F /  -16.4 °C 2.0 °F /  -16.7 °C 1022.9 in /  34635.4 hPa West 5.0 mph /  8 km/h 6.4 mph /  10.3 km/h 97 % 0.0 in /  0 mm
20:39 2.3 °F /  -16.5 °C 1.9 °F /  -16.7 °C 1022.9 in /  34635.4 hPa WSW 7.6 mph /  12.2 km/h 8.7 mph /  14 km/h 97 % 0.0 in /  0 mm
20:49 2.3 °F /  -16.5 °C 1.9 °F /  -16.7 °C 1022.9 in /  34635.4 hPa WSW 9.3 mph /  15 km/h 11.9 mph /  19.2 km/h 97 % 0.0 in /  0 mm
20:59 2.6 °F /  -16.3 °C 2.1 °F /  -16.6 °C 1022.9 in /  34635.4 hPa WSW 9.3 mph /  15 km/h 9.3 mph /  15 km/h 97 % 0.0 in /  0 mm
21:09 2.7 °F /  -16.3 °C 2.2 °F /  -16.6 °C 1022.9 in /  34635.4 hPa West 9.3 mph /  15 km/h 12.6 mph /  20.3 km/h 97 % 0.0 in /  0 mm
21:29 3.1 °F /  -16.1 °C 2.7 °F /  -16.3 °C 1022.9 in /  34635.4 hPa West 8.7 mph /  14 km/h 12.2 mph /  19.6 km/h 97 % 0.0 in /  0 mm
21:39 3.3 °F /  -15.9 °C 2.9 °F /  -16.2 °C 1022.9 in /  34635.4 hPa West 11.6 mph /  18.7 km/h 15.8 mph /  25.4 km/h 97 % 0.0 in /  0 mm
21:49 3.6 °F /  -15.8 °C 3.2 °F /  -16 °C 1022.9 in /  34635.4 hPa West 10.5 mph /  16.9 km/h 17.7 mph /  28.5 km/h 97 % 0.0 in /  0 mm
21:59 3.8 °F /  -15.7 °C 3.2 °F /  -16 °C 1022.9 in /  34635.4 hPa West 15.8 mph /  25.4 km/h 20.6 mph /  33.2 km/h 96 % 0.0 in /  0 mm
22:09 3.9 °F /  -15.6 °C 3.1 °F /  -16.1 °C 1022.9 in /  34635.4 hPa WSW 15.8 mph /  25.4 km/h 18.0 mph /  29 km/h 94 % 0.0 in /  0 mm
22:19 3.9 °F /  -15.6 °C 2.7 °F /  -16.3 °C 1022.9 in /  34635.4 hPa WSW 12.2 mph /  19.6 km/h 17.2 mph /  27.7 km/h 92 % 0.0 in /  0 mm
22:29 4.0 °F /  -15.6 °C 2.8 °F /  -16.2 °C 1022.9 in /  34635.4 hPa West 17.7 mph /  28.5 km/h 21.2 mph /  34.1 km/h 92 % 0.0 in /  0 mm
22:39 4.1 °F /  -15.5 °C 2.6 °F /  -16.3 °C 1021.9 in /  34601.5 hPa WSW 16.9 mph /  27.2 km/h 21.6 mph /  34.8 km/h 90 % 0.0 in /  0 mm
22:49 4.1 °F /  -15.5 °C 2.8 °F /  -16.2 °C 1022.9 in /  34635.4 hPa SW 7.6 mph /  12.2 km/h 19.8 mph /  31.9 km/h 91 % 0.0 in /  0 mm
22:59 4.1 °F /  -15.5 °C 2.8 °F /  -16.2 °C 1022.9 in /  34635.4 hPa West 10.1 mph /  16.3 km/h 16.9 mph /  27.2 km/h 91 % 0.0 in /  0 mm
23:09 4.1 °F /  -15.5 °C 2.8 °F /  -16.2 °C 1021.9 in /  34601.5 hPa West 13.7 mph /  22 km/h 16.9 mph /  27.2 km/h 91 % 0.0 in /  0 mm
23:19 4.2 °F /  -15.4 °C 2.9 °F /  -16.2 °C 1021.9 in /  34601.5 hPa West 17.2 mph /  27.7 km/h 20.6 mph /  33.2 km/h 91 % 0.0 in /  0 mm
23:29 4.3 °F /  -15.4 °C 2.9 °F /  -16.2 °C 1021.9 in /  34601.5 hPa West 16.6 mph /  26.7 km/h 20.9 mph /  33.6 km/h 91 % 0.0 in /  0 mm
23:39 4.3 °F /  -15.4 °C 2.9 °F /  -16.2 °C 1021.9 in /  34601.5 hPa West 13.0 mph /  20.9 km/h 20.9 mph /  33.6 km/h 91 % 0.0 in /  0 mm
23:49 4.5 °F /  -15.3 °C 3.2 °F /  -16 °C 1021.9 in /  34601.5 hPa West 10.5 mph /  16.9 km/h 18.3 mph /  29.5 km/h 91 % 0.0 in /  0 mm
23:59 4.5 °F /  -15.3 °C 3.2 °F /  -16 °C 1021.9 in /  34601.5 hPa West 6.9 mph /  11.1 km/h 15.4 mph /  24.8 km/h 91 % 0.0 in /  0 mm
Le Gheer Warneton
Courtoisie de Weather Underground - 1.5 mb

Mise a jour : 25/02/2018 18:35:11
Généré par Cumulus 1.9.4 (1099)